Portada
METAR-TAF:

METAR-TAF

Aeropuertos :

El Cairo, Egipto

Aeropuerto Internacional de El Cairo

latitud: 30-08N, longitud: 031-24E, altitud: 64 m

Observación

El informe se hizo hace 16 minutos, a las 13:00 UTC
Viento 10 kt del norte-noroeste
Temperatura 29°C
Humedad 37%
Presión 1016 hPa
Visibilidad 10 km o más
Escasas nubes a una altura de 2500 ft

METAR: HECA 171300Z 33010KT 9999 FEW025 29/13 Q1016 NOSIG

Hora: 15:16 (13:16 UTC)

Pronóstico

El informe se hizo hace 2 horas y 16 minutos, a las 11:00 UTC
Pronóstico válido del 17 a las 12 UTC al 18 a las 18 UTC
Viento 10 kt del norte
Visibilidad 10 km o más
Nubes dispersas a una altura de 2500 ft
Temporalmente
del 18 a las 00 UTC al 18 a las 06 UTC
Viento 3 kt con dirección variable
Visibilidad: 3000 m
neblina

TAF: HECA 171100Z 1712/1818 36010KT 9999 SCT025 TEMPO 1800/1806 VRB03KT 3000 BR NSC

Observaciones y pronósticos meteorológicos de más de 4000 aeropuertos (mensajes METAR y TAF).

Los puntos amarillos y rojos representan las estaciones disponibles.

Ponga el ratón en el punto deseado para ver el nombre de la estación.

Haga clic para ver las observaciones y los pronósticos meteorológicos.

Para cambiar el mapa : haga clic en los botones verdes con una cruz de color negro para hacer un zoom, en el botón verde con un guión para alejar o en las flechas verdes para mapas adyacentes.


METAR-TAF: